Terminal Aerodrome Forecast
Issued by NWS Twin Cities, MN

Home | Current Version | Previous Version | Graphics & Text | Print | Product List | Glossary On
Versions: 1 2 3 4 5 6 7 8 9 10 11 12 13 14 15
000
FTUS43 KMPX 272337
TAFEAU
TAF
KEAU 272337Z 2800/2824 15009KT P6SM SCT050
     FM280300 14005KT P6SM SCT030
     FM281000 15011KT 4SM BR SCT015
     FM281400 16013KT P6SM BKN035
      TEMPO 2815/2818 2SM -TSRA BR OVC020CB
     FM281800 17015G22KT P6SM VCSH SCT020 BKN035=

USA.gov is the U.S. government's official web portal to all federal, state and local government web resources and services.